createdAt,value
2022-09-23T00:00:46.354Z,4.21
2022-09-23T00:03:14.118Z,4.19
2022-09-23T00:05:41.072Z,4.18
2022-09-23T00:08:11.072Z,4.13
2022-09-23T00:10:39.638Z,4.13
2022-09-23T00:13:07.060Z,4.09
2022-09-23T00:15:39.059Z,4.07
2022-09-23T00:18:06.140Z,4.05
2022-09-23T00:20:34.761Z,4.05
2022-09-23T00:23:02.589Z,4.03
2022-09-23T00:25:29.585Z,4.01
2022-09-23T00:27:57.290Z,4.01
2022-09-23T00:30:24.507Z,4.01
2022-09-23T00:32:51.515Z,4.01
2022-09-23T00:35:19.038Z,3.99
2022-09-23T00:37:46.023Z,3.98
2022-09-23T00:40:13.053Z,3.94
2022-09-23T00:42:48.310Z,3.88
2022-09-23T00:45:17.053Z,3.84
2022-09-23T00:47:56.175Z,3.82
2022-09-23T00:50:40.164Z,3.84
2022-09-23T00:53:09.940Z,3.79
2022-09-23T00:55:45.745Z,3.81
2022-09-23T00:58:17.188Z,3.78
2022-09-23T01:00:44.365Z,3.77
2022-09-23T01:03:11.341Z,3.74
2022-09-23T01:05:38.700Z,3.71
2022-09-23T01:08:08.925Z,3.68
2022-09-23T01:11:07.988Z,3.67
2022-09-23T01:13:53.611Z,3.66
2022-09-23T01:16:26.984Z,3.61
2022-09-23T01:18:56.791Z,3.60
2022-09-23T01:21:37.153Z,3.55
2022-09-23T01:24:31.184Z,3.55
2022-09-23T01:27:10.220Z,3.54
2022-09-23T01:30:06.497Z,3.53
2022-09-23T01:32:46.280Z,3.51
2022-09-23T01:35:25.395Z,3.48
2022-09-23T01:38:17.200Z,3.45
2022-09-23T01:40:51.780Z,3.43
2022-09-23T01:43:32.386Z,3.39
2022-09-23T01:46:02.675Z,3.34
2022-09-23T01:48:35.711Z,3.37
2022-09-23T01:51:15.281Z,3.35
2022-09-23T01:54:03.171Z,3.38
2022-09-23T01:56:35.616Z,3.37
2022-09-23T01:59:19.453Z,3.36
2022-09-23T02:01:55.176Z,3.34
2022-09-23T02:04:29.694Z,3.32
2022-09-23T02:07:03.148Z,3.32
2022-09-23T02:09:37.400Z,3.33
2022-09-23T02:12:13.626Z,3.30
2022-09-23T02:14:49.163Z,3.29
2022-09-23T02:17:28.845Z,3.27
2022-09-23T02:20:02.432Z,3.27
2022-09-23T02:23:01.365Z,3.25
2022-09-23T02:25:55.131Z,3.23
2022-09-23T02:28:32.717Z,3.20
2022-09-23T02:31:38.223Z,3.18
2022-09-23T02:34:20.593Z,3.15
2022-09-23T02:37:02.762Z,3.17
2022-09-23T02:39:39.786Z,3.13
2022-09-23T02:42:13.718Z,3.11
2022-09-23T02:44:40.738Z,3.06
2022-09-23T02:47:08.118Z,3.07
2022-09-23T02:49:35.106Z,3.05
2022-09-23T02:52:05.145Z,3.04
2022-09-23T02:54:33.573Z,3.04
2022-09-23T02:57:04.386Z,3.02
2022-09-23T02:59:32.553Z,2.94
2022-09-23T03:02:11.888Z,2.94
2022-09-23T03:04:47.040Z,2.94
2022-09-23T03:07:50.005Z,2.91
2022-09-23T03:10:35.633Z,2.94
2022-09-23T03:13:15.911Z,2.93
2022-09-23T03:15:53.017Z,2.92
2022-09-23T03:18:44.574Z,2.93
2022-09-23T03:21:15.256Z,2.93
2022-09-23T03:23:44.550Z,2.93
2022-09-23T03:26:23.133Z,2.91
2022-09-23T03:28:51.170Z,2.92
2022-09-23T03:31:18.405Z,2.89
2022-09-23T03:33:50.535Z,2.88
2022-09-23T03:36:23.607Z,2.88
2022-09-23T03:38:54.549Z,2.85
2022-09-23T03:41:36.542Z,2.85
2022-09-23T03:44:03.771Z,2.85
2022-09-23T03:46:30.664Z,2.82
2022-09-23T03:49:08.269Z,2.78
2022-09-23T03:51:35.221Z,2.77
2022-09-23T03:54:02.245Z,2.75
2022-09-23T03:56:32.164Z,2.75
2022-09-23T03:58:59.221Z,2.72
2022-09-23T04:01:26.333Z,2.68
2022-09-23T04:03:53.365Z,2.64
2022-09-23T04:06:20.708Z,2.65
2022-09-23T04:08:47.771Z,2.61
2022-09-23T04:11:14.913Z,2.61
2022-09-23T04:13:41.919Z,2.63
2022-09-23T04:16:08.919Z,2.62
2022-09-23T04:18:36.140Z,2.62
2022-09-23T04:21:03.321Z,2.61
2022-09-23T04:23:30.308Z,2.62
2022-09-23T04:25:57.314Z,2.62
2022-09-23T04:28:24.349Z,2.58
2022-09-23T04:30:51.355Z,2.62
2022-09-23T04:33:18.351Z,2.61
2022-09-23T04:35:50.467Z,2.62
2022-09-23T04:38:18.410Z,2.59
2022-09-23T04:40:45.414Z,2.60
2022-09-23T04:43:13.647Z,2.57
2022-09-23T04:45:40.704Z,2.55
2022-09-23T04:48:07.720Z,2.54
2022-09-23T04:50:34.979Z,2.55
2022-09-23T04:53:01.969Z,2.56
2022-09-23T04:55:29.311Z,2.57
2022-09-23T04:57:56.691Z,2.59
2022-09-23T05:00:24.995Z,2.60
2022-09-23T05:02:51.969Z,2.62
2022-09-23T05:05:19.127Z,2.64
2022-09-23T05:07:46.486Z,2.66
2022-09-23T05:10:13.939Z,2.65
2022-09-23T05:12:41.799Z,2.66
2022-09-23T05:15:09.267Z,2.68
2022-09-23T05:17:36.419Z,2.73
2022-09-23T05:20:04.292Z,2.76
2022-09-23T05:22:31.433Z,2.79
2022-09-23T05:24:58.479Z,2.83
2022-09-23T05:27:25.441Z,2.85
2022-09-23T05:29:52.412Z,2.93
2022-09-23T05:32:19.581Z,2.99
2022-09-23T05:34:46.647Z,3.08
2022-09-23T05:37:13.797Z,3.16
2022-09-23T05:39:40.831Z,3.27
2022-09-23T05:42:07.886Z,3.38
2022-09-23T05:44:35.128Z,3.47
2022-09-23T05:47:02.232Z,3.55
2022-09-23T05:49:48.257Z,3.59
2022-09-23T05:52:16.262Z,3.69
2022-09-23T05:54:43.345Z,3.80
2022-09-23T05:57:10.330Z,3.89
2022-09-23T05:59:37.361Z,3.99
2022-09-23T06:02:04.643Z,4.07
2022-09-23T06:04:31.664Z,4.17
2022-09-23T06:07:03.649Z,4.28
2022-09-23T06:09:34.225Z,4.42
2022-09-23T06:12:04.422Z,4.56
2022-09-23T06:14:31.423Z,4.68
2022-09-23T06:16:58.378Z,4.90
2022-09-23T06:19:25.344Z,5.04
2022-09-23T06:21:52.334Z,5.22
2022-09-23T06:24:22.962Z,5.36
2022-09-23T06:26:51.883Z,5.58
2022-09-23T06:29:18.881Z,5.79
2022-09-23T06:31:45.844Z,5.95
2022-09-23T06:34:14.385Z,6.16
2022-09-23T06:36:45.037Z,6.32
2022-09-23T06:39:14.408Z,6.49
2022-09-23T06:41:41.631Z,6.68
2022-09-23T06:44:13.646Z,6.75
2022-09-23T06:46:40.876Z,6.82
2022-09-23T06:49:07.905Z,7.02
2022-09-23T06:51:34.934Z,7.32
2022-09-23T06:54:01.970Z,7.42
2022-09-23T06:56:29.033Z,7.59
2022-09-23T06:58:57.048Z,7.79
2022-09-23T07:01:24.014Z,7.97
2022-09-23T07:03:50.997Z,8.18
2022-09-23T07:06:17.961Z,8.29
2022-09-23T07:08:46.123Z,8.45
2022-09-23T07:11:14.169Z,8.77
2022-09-23T07:13:42.081Z,8.81
2022-09-23T07:16:10.733Z,9.00
2022-09-23T07:18:37.953Z,9.01
2022-09-23T07:21:07.841Z,9.07
2022-09-23T07:23:34.958Z,9.18
2022-09-23T07:26:01.955Z,9.38
2022-09-23T07:28:28.904Z,9.46
2022-09-23T07:31:00.297Z,9.53
2022-09-23T07:33:32.420Z,9.66
2022-09-23T07:36:04.395Z,9.80
2022-09-23T07:38:31.416Z,9.94
2022-09-23T07:41:06.537Z,10.12
2022-09-23T07:43:33.560Z,10.14
2022-09-23T07:46:03.744Z,10.31
2022-09-23T07:48:34.302Z,10.43
2022-09-23T07:51:13.333Z,10.49
2022-09-23T07:53:40.319Z,10.69
2022-09-23T07:56:07.302Z,10.88
2022-09-23T07:58:35.217Z,11.05
2022-09-23T08:01:09.153Z,11.19
2022-09-23T08:03:37.059Z,11.39
2022-09-23T08:06:13.852Z,11.61
2022-09-23T08:08:41.703Z,11.80
2022-09-23T08:11:11.084Z,11.96
2022-09-23T08:13:38.120Z,11.98
2022-09-23T08:16:05.459Z,12.20
2022-09-23T08:18:33.052Z,12.29
2022-09-23T08:21:00.156Z,12.55
2022-09-23T08:23:27.339Z,12.69
2022-09-23T08:26:00.224Z,13.01
2022-09-23T08:28:27.968Z,13.18
2022-09-23T08:30:55.408Z,13.24
2022-09-23T08:33:23.724Z,13.32
2022-09-23T08:35:52.243Z,13.35
2022-09-23T08:38:19.841Z,13.38
2022-09-23T08:40:49.284Z,13.45
2022-09-23T08:43:28.238Z,13.53
2022-09-23T08:46:00.071Z,13.64
2022-09-23T08:48:34.515Z,13.81
2022-09-23T08:51:08.061Z,13.98
2022-09-23T08:53:37.075Z,14.10
2022-09-23T08:56:19.669Z,14.26
2022-09-23T08:59:05.471Z,14.40
2022-09-23T09:01:49.742Z,14.45
2022-09-23T09:05:01.021Z,14.59
2022-09-23T09:07:37.130Z,14.76
2022-09-23T09:10:13.746Z,14.82
2022-09-23T09:12:44.928Z,14.93
2022-09-23T09:15:25.266Z,14.97
2022-09-23T09:18:01.383Z,15.20
2022-09-23T09:20:40.797Z,15.23
2022-09-23T09:23:13.497Z,15.45
2022-09-23T09:25:50.828Z,15.58
2022-09-23T09:28:38.170Z,15.64
2022-09-23T09:31:40.463Z,15.57
2022-09-23T09:34:30.420Z,15.73
2022-09-23T09:37:06.739Z,15.85
2022-09-23T09:39:35.549Z,15.78
2022-09-23T09:42:04.559Z,15.83
2022-09-23T09:44:40.745Z,15.99
2022-09-23T09:47:34.463Z,15.99
2022-09-23T09:50:06.922Z,16.10
2022-09-23T09:52:38.428Z,16.35
2022-09-23T09:55:14.538Z,16.55
2022-09-23T09:57:47.438Z,16.69
2022-09-23T10:00:22.178Z,16.87
2022-09-23T10:02:53.072Z,16.84
2022-09-23T10:05:27.799Z,17.03
2022-09-23T10:07:55.078Z,17.12
2022-09-23T10:10:33.498Z,17.05
2022-09-23T10:13:15.454Z,17.09
2022-09-23T10:15:45.201Z,17.14
2022-09-23T10:18:19.893Z,17.20
2022-09-23T10:20:48.141Z,17.20
2022-09-23T10:23:22.157Z,17.18
2022-09-23T10:26:00.978Z,17.09
2022-09-23T10:28:48.084Z,17.24
2022-09-23T10:31:24.525Z,17.33
2022-09-23T10:33:54.166Z,17.40
2022-09-23T10:36:21.553Z,17.48
2022-09-23T10:39:00.896Z,17.52
2022-09-23T10:42:09.340Z,17.52
2022-09-23T10:45:15.102Z,17.45
2022-09-23T10:47:56.193Z,17.51
2022-09-23T10:50:39.457Z,17.50
2022-09-23T10:53:14.794Z,17.53
2022-09-23T10:55:57.020Z,17.76
2022-09-23T10:58:54.983Z,17.89
2022-09-23T11:01:43.534Z,18.03
2022-09-23T11:04:27.216Z,18.00
2022-09-23T11:07:36.927Z,18.04
2022-09-23T11:10:44.985Z,18.23
2022-09-23T11:13:30.397Z,18.32
2022-09-23T11:16:39.324Z,18.36
2022-09-23T11:19:15.347Z,18.18
2022-09-23T11:21:59.785Z,18.30
2022-09-23T11:24:48.446Z,18.26
2022-09-23T11:27:39.620Z,18.39
2022-09-23T11:30:20.366Z,18.57
2022-09-23T11:35:42.392Z,18.75
2022-09-23T11:38:15.726Z,18.72
2022-09-23T11:40:46.870Z,18.67
2022-09-23T11:43:29.746Z,18.66
2022-09-23T11:46:06.664Z,18.51
2022-09-23T11:48:41.490Z,18.72
2022-09-23T11:51:19.449Z,18.74
2022-09-23T11:54:20.432Z,18.68
2022-09-23T11:56:56.569Z,18.71
2022-09-23T11:59:39.951Z,18.74
2022-09-23T12:02:19.895Z,18.78
2022-09-23T12:05:01.118Z,18.89
2022-09-23T12:07:43.449Z,19.03
2022-09-23T12:10:11.896Z,19.00
2022-09-23T12:12:44.137Z,19.05
2022-09-23T12:15:23.909Z,18.86
2022-09-23T12:17:59.393Z,19.02
2022-09-23T12:20:40.496Z,19.30
2022-09-23T12:23:32.268Z,19.28
2022-09-23T12:26:03.143Z,19.27
2022-09-23T12:28:40.252Z,19.24
2022-09-23T12:31:13.767Z,19.32
2022-09-23T12:33:48.392Z,19.45
2022-09-23T12:36:15.496Z,19.49
2022-09-23T12:39:16.962Z,19.46
2022-09-23T12:41:48.213Z,19.32
2022-09-23T12:44:29.521Z,19.61
2022-09-23T12:47:14.948Z,19.69
2022-09-23T12:49:42.762Z,19.74
2022-09-23T12:52:12.520Z,19.49
2022-09-23T12:54:41.134Z,19.74
2022-09-23T12:57:13.119Z,19.81
2022-09-23T12:59:59.854Z,19.89
2022-09-23T13:02:34.575Z,20.01
2022-09-23T13:05:20.585Z,20.11
2022-09-23T13:07:49.801Z,20.25
2022-09-23T13:10:27.122Z,20.16
2022-09-23T13:12:56.092Z,20.24
2022-09-23T13:15:35.712Z,20.19
2022-09-23T13:18:20.861Z,20.21
2022-09-23T13:20:49.939Z,19.95
2022-09-23T13:23:30.387Z,19.95
2022-09-23T13:26:10.854Z,19.89
2022-09-23T13:28:56.011Z,19.80
2022-09-23T13:31:23.087Z,19.84
2022-09-23T13:34:01.870Z,19.53
2022-09-23T13:36:28.944Z,19.40
2022-09-23T13:39:14.838Z,19.01
2022-09-23T13:41:45.218Z,18.75
2022-09-23T13:44:17.636Z,18.93
2022-09-23T13:47:00.429Z,19.02
2022-09-23T13:49:33.112Z,19.28
2022-09-23T13:52:00.362Z,19.48
2022-09-23T13:54:29.902Z,19.48
2022-09-23T13:56:57.248Z,19.48
2022-09-23T13:59:30.314Z,19.36
2022-09-23T14:02:05.858Z,19.30
2022-09-23T14:04:33.030Z,19.22
2022-09-23T14:07:01.408Z,19.24
2022-09-23T14:09:29.759Z,19.37
2022-09-23T14:11:59.389Z,19.60
2022-09-23T14:14:28.965Z,19.59
2022-09-23T14:16:57.609Z,19.59
2022-09-23T14:19:26.084Z,19.66
2022-09-23T14:21:54.513Z,19.55
2022-09-23T14:24:33.586Z,19.29
2022-09-23T14:27:17.700Z,19.32
2022-09-23T14:29:47.650Z,19.22
2022-09-23T14:32:25.828Z,19.06
2022-09-23T14:35:02.008Z,19.04
2022-09-23T14:37:37.946Z,18.62
2022-09-23T14:40:12.288Z,18.64
2022-09-23T14:42:49.258Z,18.48
2022-09-23T14:45:20.372Z,18.50
2022-09-23T14:47:53.584Z,18.54
2022-09-23T14:50:24.184Z,18.40
2022-09-23T14:52:51.539Z,18.45
2022-09-23T14:55:18.670Z,18.15
2022-09-23T14:57:45.950Z,17.87
2022-09-23T15:00:13.375Z,17.85
2022-09-23T15:02:44.583Z,17.58
2022-09-23T15:05:20.100Z,17.49
2022-09-23T15:07:50.416Z,17.35
2022-09-23T15:10:26.153Z,17.27
2022-09-23T15:12:56.579Z,17.12
2022-09-23T15:15:26.053Z,16.92
2022-09-23T15:17:53.505Z,16.77
2022-09-23T15:20:26.737Z,16.71
2022-09-23T15:22:55.696Z,16.58
2022-09-23T15:25:27.106Z,16.48
2022-09-23T15:27:58.278Z,16.38
2022-09-23T15:30:26.062Z,16.23
2022-09-23T15:32:53.148Z,16.23
2022-09-23T15:35:22.835Z,16.24
2022-09-23T15:37:50.633Z,16.16
2022-09-23T15:40:44.089Z,16.11
2022-09-23T15:43:21.767Z,16.04
2022-09-23T15:45:54.263Z,16.04
2022-09-23T15:48:36.786Z,15.91
2022-09-23T15:51:06.042Z,15.74
2022-09-23T15:53:33.066Z,15.64
2022-09-23T15:56:00.048Z,15.66
2022-09-23T15:58:27.070Z,15.57
2022-09-23T16:00:56.842Z,15.43
2022-09-23T16:03:25.779Z,15.47
2022-09-23T16:05:52.775Z,15.34
2022-09-23T16:08:19.734Z,15.29
2022-09-23T16:10:46.713Z,15.24
2022-09-23T16:13:14.504Z,15.09
2022-09-23T16:15:42.243Z,14.97
2022-09-23T16:18:11.323Z,14.85
2022-09-23T16:20:41.706Z,14.78
2022-09-23T16:23:18.488Z,14.72
2022-09-23T16:25:45.451Z,14.67
2022-09-23T16:28:12.413Z,14.59
2022-09-23T16:30:39.352Z,14.55
2022-09-23T16:33:06.305Z,14.50
2022-09-23T16:35:33.667Z,14.37
2022-09-23T16:38:00.654Z,14.25
2022-09-23T16:40:27.681Z,14.16
2022-09-23T16:42:54.665Z,14.07
2022-09-23T16:45:22.394Z,14.02
2022-09-23T16:47:51.500Z,13.96
2022-09-23T16:50:21.578Z,13.81
2022-09-23T16:52:48.690Z,13.78
2022-09-23T16:55:15.670Z,13.67
2022-09-23T16:57:43.223Z,13.58
2022-09-23T17:00:14.139Z,13.46
2022-09-23T17:02:41.223Z,13.31
2022-09-23T17:05:08.673Z,13.22
2022-09-23T17:07:35.666Z,13.13
2022-09-23T17:10:02.845Z,13.03
2022-09-23T17:12:32.101Z,12.94
2022-09-23T17:14:59.055Z,12.86
2022-09-23T17:17:26.033Z,12.76
2022-09-23T17:19:53.033Z,12.75
2022-09-23T17:22:20.174Z,12.75
2022-09-23T17:24:47.261Z,12.65
2022-09-23T17:27:14.267Z,12.61
2022-09-23T17:29:41.204Z,12.40
2022-09-23T17:32:08.185Z,12.33
2022-09-23T17:34:35.153Z,12.30
2022-09-23T17:37:02.133Z,12.21
2022-09-23T17:39:29.091Z,12.10
2022-09-23T17:41:56.067Z,12.02
2022-09-23T17:44:23.031Z,11.94
2022-09-23T17:46:50.034Z,11.96
2022-09-23T17:49:17.133Z,11.95
2022-09-23T17:51:44.245Z,11.86
2022-09-23T17:54:11.309Z,11.82
2022-09-23T17:56:38.297Z,11.82
2022-09-23T17:59:05.559Z,11.76
2022-09-23T18:01:32.666Z,11.65
2022-09-23T18:04:01.457Z,11.64
2022-09-23T18:06:30.780Z,11.62
2022-09-23T18:08:59.353Z,11.58
2022-09-23T18:11:28.791Z,11.53
2022-09-23T18:14:00.961Z,11.49
2022-09-23T18:16:31.272Z,11.40
2022-09-23T18:19:00.516Z,11.38
2022-09-23T18:21:30.987Z,11.36
2022-09-23T18:24:21.425Z,11.41
2022-09-23T18:26:47.556Z,11.44
2022-09-23T18:29:14.525Z,11.45
2022-09-23T18:31:42.550Z,11.44
2022-09-23T18:34:15.750Z,11.44
2022-09-23T18:36:43.154Z,11.42
2022-09-23T18:39:10.653Z,11.41
2022-09-23T18:41:38.132Z,11.43
2022-09-23T18:44:05.189Z,11.42
2022-09-23T18:46:32.168Z,11.38
2022-09-23T18:49:01.947Z,11.40
2022-09-23T18:51:34.800Z,11.37
2022-09-23T18:54:03.339Z,11.36
2022-09-23T18:56:39.788Z,11.27
2022-09-23T18:59:16.700Z,11.15
2022-09-23T19:01:44.679Z,11.11
2022-09-23T19:04:12.765Z,11.05
2022-09-23T19:06:39.839Z,11.02
2022-09-23T19:09:07.714Z,10.94
2022-09-23T19:11:35.488Z,10.84
2022-09-23T19:14:05.123Z,10.80
2022-09-23T19:16:32.821Z,10.78
2022-09-23T19:19:00.126Z,10.78
2022-09-23T19:21:28.151Z,10.77
2022-09-23T19:24:00.992Z,10.78
2022-09-23T19:26:30.503Z,10.79
2022-09-23T19:28:58.848Z,10.79
2022-09-23T19:31:31.733Z,10.76
2022-09-23T19:34:04.117Z,10.70
2022-09-23T19:36:35.934Z,10.66
2022-09-23T19:39:06.315Z,10.62
2022-09-23T19:41:34.503Z,10.57
2022-09-23T19:44:03.511Z,10.53
2022-09-23T19:46:31.197Z,10.50
2022-09-23T19:48:58.465Z,10.52
2022-09-23T19:51:26.056Z,10.52
2022-09-23T19:53:53.381Z,10.49
2022-09-23T19:56:20.637Z,10.47
2022-09-23T19:58:51.249Z,10.46
2022-09-23T20:01:18.973Z,10.44
2022-09-23T20:03:46.830Z,10.44
2022-09-23T20:06:14.914Z,10.44
2022-09-23T20:08:42.387Z,10.40
2022-09-23T20:11:14.922Z,10.35
2022-09-23T20:13:44.026Z,10.34
2022-09-23T20:16:14.704Z,10.32
2022-09-23T20:18:43.465Z,10.31
2022-09-23T20:21:12.909Z,10.25
2022-09-23T20:23:40.413Z,10.27
2022-09-23T20:26:07.454Z,10.27
2022-09-23T20:28:34.434Z,10.28
2022-09-23T20:31:01.440Z,10.27
2022-09-23T20:33:28.477Z,10.22
2022-09-23T20:35:55.541Z,10.21
2022-09-23T20:38:22.602Z,10.17
2022-09-23T20:40:57.270Z,10.14
2022-09-23T20:43:24.799Z,10.10
2022-09-23T20:45:53.996Z,10.08
2022-09-23T20:48:22.632Z,10.08
2022-09-23T20:50:50.395Z,10.06
2022-09-23T20:53:18.769Z,10.00
2022-09-23T20:55:53.284Z,9.93
2022-09-23T20:58:25.748Z,9.88
2022-09-23T21:00:53.896Z,9.82
2022-09-23T21:03:20.936Z,9.74
2022-09-23T21:05:47.884Z,9.68
2022-09-23T21:08:16.074Z,9.59
2022-09-23T21:10:43.053Z,9.54
2022-09-23T21:13:10.168Z,9.46
2022-09-23T21:15:37.136Z,9.41
2022-09-23T21:18:04.338Z,9.36
2022-09-23T21:20:31.304Z,9.29
2022-09-23T21:22:58.316Z,9.19
2022-09-23T21:25:28.435Z,9.16
2022-09-23T21:27:55.903Z,9.15
2022-09-23T21:30:22.871Z,9.11
2022-09-23T21:32:49.872Z,9.06
2022-09-23T21:35:16.835Z,9.03
2022-09-23T21:37:43.793Z,9.02
2022-09-23T21:40:11.028Z,9.02
2022-09-23T21:42:38.093Z,9.02
2022-09-23T21:45:05.537Z,9.04
2022-09-23T21:47:32.501Z,9.04
2022-09-23T21:49:59.455Z,9.04
2022-09-23T21:52:26.423Z,9.03
2022-09-23T21:54:53.399Z,9.05
2022-09-23T21:57:20.364Z,9.05
2022-09-23T21:59:47.293Z,9.04
2022-09-23T22:02:14.344Z,8.99
2022-09-23T22:04:41.400Z,8.97
2022-09-23T22:07:08.401Z,8.97
2022-09-23T22:09:35.382Z,8.93
2022-09-23T22:12:02.349Z,8.91
2022-09-23T22:14:29.420Z,8.85
2022-09-23T22:16:59.700Z,8.79
2022-09-23T22:19:29.434Z,8.75
2022-09-23T22:21:56.404Z,8.72
2022-09-23T22:24:23.350Z,8.65
2022-09-23T22:26:50.392Z,8.61
2022-09-23T22:29:17.445Z,8.59
2022-09-23T22:31:44.623Z,8.56
2022-09-23T22:34:31.242Z,8.50
2022-09-23T22:37:01.032Z,8.49
2022-09-23T22:39:29.516Z,8.43
2022-09-23T22:41:56.684Z,8.39
2022-09-23T22:44:24.405Z,8.38
2022-09-23T22:46:52.101Z,8.32
2022-09-23T22:49:19.110Z,8.30
2022-09-23T22:51:46.205Z,8.28
2022-09-23T22:54:13.222Z,8.27
2022-09-23T22:56:40.186Z,8.22
2022-09-23T22:59:09.893Z,8.22
2022-09-23T23:01:37.001Z,8.18
2022-09-23T23:04:04.353Z,8.18
2022-09-23T23:06:33.175Z,8.18
2022-09-23T23:09:00.454Z,8.13
2022-09-23T23:11:27.879Z,8.11
2022-09-23T23:13:54.852Z,8.12
2022-09-23T23:16:21.859Z,8.10
2022-09-23T23:18:48.871Z,8.08
2022-09-23T23:21:19.154Z,8.10
2022-09-23T23:23:51.681Z,8.10
2022-09-23T23:26:23.970Z,8.10
2022-09-23T23:28:52.785Z,8.11
2022-09-23T23:31:21.321Z,8.12
2022-09-23T23:33:48.822Z,8.11
2022-09-23T23:36:18.494Z,8.13
2022-09-23T23:38:47.525Z,8.11
2022-09-23T23:41:17.238Z,8.08
2022-09-23T23:43:46.258Z,8.07
2022-09-23T23:46:14.783Z,8.06
2022-09-23T23:48:42.489Z,8.09
2022-09-23T23:51:10.939Z,8.09
2022-09-23T23:53:39.710Z,8.08
2022-09-23T23:56:12.164Z,8.02
2022-09-23T23:58:39.975Z,7.97
